Time;durP1;ratioP1;P1;durP2;ratioP2;P2;SDS_P1;SDS_P2;PMS_P1;PMS_P2;Temp;Humidity;BMP_temperature;BMP_pressure;BME280_temperature;BME280_humidity;BME280_pressure;Samples;Min_cycle;Max_cycle;Signal;HPM_P1;HPM_P2
2023/04/05 00:02:20;;;;;;;1999.90;999.90;;;;;;;1.42;54.47;98128.00;5134561;27;20027;-74
2023/04/05 00:04:56;;;;;;;1999.90;999.90;;;;;;;1.44;56.68;98131.28;5116399;27;20049;-74
2023/04/05 00:07:23;;;;;;;1999.90;999.90;;;;;;;1.38;57.16;98126.84;5134380;27;20407;-74
2023/04/05 00:09:48;;;;;;;1999.90;999.90;;;;;;;1.37;57.86;98123.31;5116008;27;20440;-73
2023/04/05 00:12:14;;;;;;;1999.90;999.90;;;;;;;1.25;57.94;98117.09;5134317;27;20118;-74
2023/04/05 00:14:40;;;;;;;1999.90;999.90;;;;;;;1.21;58.67;98107.81;5134322;27;20119;-74
2023/04/05 00:17:05;;;;;;;1999.90;999.90;;;;;;;1.34;57.04;98128.34;5135442;27;20027;-76
2023/04/05 00:19:32;;;;;;;1999.90;999.90;;;;;;;1.35;55.11;98121.88;5134414;27;20855;-74
2023/04/05 00:21:59;;;;;;;1999.90;999.90;;;;;;;1.33;54.44;98115.91;5134273;27;20026;-73
2023/04/05 00:24:24;;;;;;;1999.90;999.90;;;;;;;1.40;53.69;98122.03;5134180;27;20106;-74
2023/04/05 00:26:49;;;;;;;1999.90;999.90;;;;;;;1.41;53.60;98121.78;5134248;27;20102;-74
2023/04/05 00:29:15;;;;;;;1999.90;999.90;;;;;;;1.33;53.79;98110.53;5134250;27;20776;-74
2023/04/05 00:31:40;;;;;;;1999.90;999.90;;;;;;;1.36;53.85;98118.16;5135014;27;20511;-74
2023/04/05 00:34:07;;;;;;;1999.90;999.90;;;;;;;1.42;53.79;98118.03;5134029;27;20027;-74
2023/04/05 00:36:33;;;;;;;1999.90;999.90;;;;;;;1.39;53.66;98109.59;5134698;27;20035;-74
2023/04/05 00:38:59;;;;;;;1999.90;999.90;;;;;;;1.41;54.21;98118.28;5133891;27;20038;-73
2023/04/05 00:41:24;;;;;;;1999.90;999.90;;;;;;;1.42;53.86;98106.44;5133862;27;20030;-73
2023/04/05 00:43:49;;;;;;;1999.90;999.90;;;;;;;1.41;54.23;98115.59;5133867;27;20035;-74
2023/04/05 00:46:15;;;;;;;1999.90;999.90;;;;;;;1.35;54.38;98108.41;5133791;27;20035;-74
2023/04/05 00:48:41;;;;;;;1999.90;999.90;;;;;;;1.39;54.36;98120.38;5133632;27;20019;-74
2023/04/05 00:51:10;;;;;;;1999.90;999.90;;;;;;;1.29;54.38;98106.66;5133677;27;20369;-74
2023/04/05 00:53:36;;;;;;;1999.90;999.90;;;;;;;1.34;54.10;98106.78;5133696;27;20046;-73
2023/04/05 00:56:02;;;;;;;1999.90;999.90;;;;;;;1.33;54.47;98113.22;5133395;27;20027;-74
2023/04/05 00:58:29;;;;;;;1999.90;999.90;;;;;;;1.30;54.33;98119.06;5133303;27;20102;-74
2023/04/05 01:01:18;;;;;;;1999.90;999.90;;;;;;;1.19;54.99;98117.19;5133339;27;20027;-74
2023/04/05 01:03:59;;;;;;;1999.90;999.90;;;;;;;1.20;55.26;98126.91;5133195;27;20034;-74
2023/04/05 01:06:46;;;;;;;1999.90;999.90;;;;;;;1.06;57.53;98110.97;5133863;27;20046;-74
2023/04/05 01:09:33;;;;;;;1999.90;999.90;;;;;;;0.90;59.34;98114.31;5133265;27;20062;-74
2023/04/05 01:12:03;;;;;;;1999.90;999.90;;;;;;;0.64;60.84;98112.00;5135052;27;20063;-75
2023/04/05 01:14:28;;;;;;;1999.90;999.90;;;;;;;0.69;61.46;98106.72;5133677;27;20023;-75
2023/04/05 01:16:57;;;;;;;1999.90;999.90;;;;;;;0.66;62.04;98117.97;5133186;27;20450;-74
2023/04/05 01:19:27;;;;;;;1999.90;999.90;;;;;;;0.50;63.02;98118.63;5133243;27;20023;-73
2023/04/05 01:22:12;;;;;;;1999.90;999.90;;;;;;;0.64;62.92;98116.53;5133084;27;20052;-73
2023/04/05 01:25:01;;;;;;;1999.90;999.90;;;;;;;0.51;63.57;98120.25;5132953;27;20035;-74
2023/04/05 01:28:11;;;;;;;1999.90;999.90;;;;;;;0.47;62.06;98116.38;5132795;27;20042;-74
2023/04/05 01:30:41;;;;;;;1999.90;999.90;;;;;;;0.61;61.64;98115.13;5103249;27;20042;-73
2023/04/05 01:33:40;;;;;;;1999.90;999.90;;;;;;;0.53;61.39;98105.50;5132807;27;20027;-74
2023/04/05 01:36:30;;;;;;;1999.90;999.90;;;;;;;0.63;60.63;98120.31;5133182;27;20783;-74
2023/04/05 01:38:58;;;;;;;1999.90;999.90;;;;;;;0.62;61.52;98108.72;5132616;27;20102;-74
2023/04/05 01:41:25;;;;;;;1999.90;999.90;;;;;;;0.62;61.28;98115.97;5132693;27;20027;-74
2023/04/05 01:43:50;;;;;;;1999.90;999.90;;;;;;;0.66;60.68;98117.97;5114186;27;20060;-73
2023/04/05 01:46:15;;;;;;;1999.90;999.90;;;;;;;0.64;61.00;98114.69;5132521;27;20019;-75
2023/04/05 01:48:41;;;;;;;1999.90;999.90;;;;;;;0.75;59.42;98113.88;5132342;27;20027;-73
2023/04/05 01:51:06;;;;;;;1999.90;999.90;;;;;;;0.75;59.52;98111.19;5131836;27;20049;-73
2023/04/05 01:53:31;;;;;;;1999.90;999.90;;;;;;;0.67;59.19;98103.47;5132206;27;20087;-74
2023/04/05 01:56:00;;;;;;;1999.90;999.90;;;;;;;0.82;59.05;98117.31;5132536;27;20026;-74
2023/04/05 01:58:26;;;;;;;1999.90;999.90;;;;;;;0.79;59.12;98117.78;5133738;27;20065;-73
2023/04/05 02:00:55;;;;;;;1999.90;999.90;;;;;;;0.74;59.25;98114.97;5132180;27;20059;-73
2023/04/05 02:03:22;;;;;;;1999.90;999.90;;;;;;;0.74;59.61;98108.75;5132167;27;20483;-73
2023/04/05 02:05:47;;;;;;;1999.90;999.90;;;;;;;0.73;59.56;98121.38;5132477;27;20027;-73
2023/04/05 02:08:13;;;;;;;1999.90;999.90;;;;;;;0.77;59.31;98116.38;5133234;27;20047;-73
2023/04/05 02:10:39;;;;;;;1999.90;999.90;;;;;;;0.75;59.51;98116.59;5132231;27;20023;-73
2023/04/05 02:13:05;;;;;;;1999.90;999.90;;;;;;;0.68;59.59;98113.19;5131970;27;20475;-74
2023/04/05 02:15:32;;;;;;;1999.90;999.90;;;;;;;0.74;59.72;98125.72;5132143;27;20034;-74
2023/04/05 02:18:00;;;;;;;1999.90;999.90;;;;;;;0.67;59.94;98116.09;5113536;27;20030;-74
2023/04/05 02:20:27;;;;;;;1999.90;999.90;;;;;;;0.67;60.17;98114.22;5132025;27;20058;-74
2023/04/05 02:22:53;;;;;;;1999.90;999.90;;;;;;;0.68;60.19;98113.19;5132017;27;20072;-73
2023/04/05 02:25:18;;;;;;;1999.90;999.90;;;;;;;0.77;60.24;98117.19;5131879;27;20019;-74
2023/04/05 02:27:44;;;;;;;1999.90;999.90;;;;;;;0.66;60.42;98115.25;5131796;27;20066;-73
2023/04/05 02:30:12;;;;;;;1999.90;999.90;;;;;;;0.72;60.26;98103.59;5131953;27;20121;-74
2023/04/05 02:32:37;;;;;;;1999.90;999.90;;;;;;;0.62;60.71;98114.09;5131962;27;20517;-74
2023/04/05 02:35:03;;;;;;;1999.90;999.90;;;;;;;0.54;61.04;98112.53;5131768;27;20023;-74
2023/04/05 02:37:29;;;;;;;1999.90;999.90;;;;;;;0.63;61.23;98121.09;5132274;27;20034;-74
2023/04/05 02:39:54;;;;;;;1999.90;999.90;;;;;;;0.70;60.70;98129.91;5131402;27;20027;-72
2023/04/05 02:42:20;;;;;;;1999.90;999.90;;;;;;;0.66;60.97;98120.66;5131407;27;20030;-72
2023/04/05 02:44:45;;;;;;;1999.90;999.90;;;;;;;0.58;61.24;98120.16;5124857;27;20031;-72
2023/04/05 02:47:10;;;;;;;1999.90;999.90;;;;;;;0.54;61.38;98109.03;5128041;27;20495;-72
2023/04/05 02:49:36;;;;;;;1999.90;999.90;;;;;;;0.55;61.40;98113.38;5130751;27;20031;-72
2023/04/05 02:52:01;;;;;;;1999.90;999.90;;;;;;;0.50;61.70;98119.41;5131164;27;20387;-73
2023/04/05 02:54:27;;;;;;;1999.90;999.90;;;;;;;0.40;62.10;98113.78;5131027;27;20045;-72
2023/04/05 02:56:53;;;;;;;1999.90;999.90;;;;;;;0.37;62.67;98118.78;5130849;28;20039;-72
2023/04/05 02:59:19;;;;;;;1999.90;999.90;;;;;;;0.35;63.19;98107.41;5130985;28;20033;-72
2023/04/05 03:01:45;;;;;;;1999.90;999.90;;;;;;;0.24;65.78;98118.94;5130530;27;20020;-73
2023/04/05 03:04:11;;;;;;;1999.90;999.90;;;;;;;0.17;67.93;98108.25;5114000;28;20031;-73
2023/04/05 03:06:37;;;;;;;1999.90;999.90;;;;;;;0.20;69.36;98112.34;5115096;28;20028;-73
2023/04/05 03:09:03;;;;;;;1999.90;999.90;;;;;;;0.32;69.45;98111.38;5114552;28;20036;-72
2023/04/05 03:11:29;;;;;;;1999.90;999.90;;;;;;;0.43;69.68;98112.50;5114533;28;20024;-72
2023/04/05 03:13:55;;;;;;;1999.90;999.90;;;;;;;0.62;69.89;98121.34;5114711;28;20031;-73
2023/04/05 03:16:21;;;;;;;1999.90;999.90;;;;;;;0.59;67.68;98117.25;5114685;28;20524;-72
2023/04/05 03:18:47;;;;;;;1999.90;999.90;;;;;;;0.40;67.79;98112.94;5096586;28;20047;-73
2023/04/05 03:21:16;;;;;;;1999.90;999.90;;;;;;;0.16;68.66;98113.88;5116575;28;20027;-72
2023/04/05 03:23:45;;;;;;;1999.90;999.90;;;;;;;0.02;69.92;98115.88;5117301;28;20084;-73
2023/04/05 03:26:11;;;;;;;1999.90;999.90;;;;;;;0.05;70.12;98114.63;5114827;28;20028;-71
2023/04/05 03:28:37;;;;;;;1999.90;999.90;;;;;;;-0.05;70.83;98112.44;5114469;28;20020;-71
2023/04/05 03:31:02;;;;;;;1999.90;999.90;;;;;;;-0.09;70.81;98114.75;5114290;28;20024;-73
2023/04/05 03:33:28;;;;;;;1999.90;999.90;;;;;;;-0.19;69.54;98108.28;5095752;28;20084;-72
2023/04/05 03:35:53;;;;;;;1999.90;999.90;;;;;;;-0.19;69.96;98114.44;5095975;28;20024;-72
2023/04/05 03:38:18;;;;;;;1999.90;999.90;;;;;;;-0.21;70.06;98118.41;5115190;27;20022;-71
2023/04/05 03:40:44;;;;;;;1999.90;999.90;;;;;;;-0.23;69.10;98112.44;5134710;27;20529;-72
2023/04/05 03:43:10;;;;;;;1999.90;999.90;;;;;;;-0.24;68.21;98116.16;5134336;27;20023;-72
2023/04/05 03:45:35;;;;;;;1999.90;999.90;;;;;;;-0.31;68.37;98112.72;5134488;27;20031;-72
2023/04/05 03:48:01;;;;;;;1999.90;999.90;;;;;;;-0.13;68.06;98115.44;5134546;27;20403;-71
2023/04/05 03:50:27;;;;;;;1999.90;999.90;;;;;;;-0.29;68.69;98124.91;5134230;27;20545;-71
2023/04/05 03:52:52;;;;;;;1999.90;999.90;;;;;;;-0.34;68.78;98122.03;5134327;27;20042;-71
2023/04/05 03:55:18;;;;;;;1999.90;999.90;;;;;;;-0.44;69.47;98116.38;5134269;27;20126;-71
2023/04/05 03:57:44;;;;;;;1999.90;999.90;;;;;;;-0.45;69.54;98120.09;5134746;27;20038;-73
2023/04/05 04:00:16;;;;;;;1999.90;999.90;;;;;;;-0.51;69.91;98126.34;5134842;27;20023;-72
2023/04/05 04:02:46;;;;;;;1999.90;999.90;;;;;;;-0.45;70.12;98130.03;5134464;27;20055;-71
2023/04/05 04:05:12;;;;;;;1999.90;999.90;;;;;;;-0.39;70.34;98129.13;5134155;27;20050;-72
2023/04/05 04:07:38;;;;;;;1999.90;999.90;;;;;;;-0.31;69.40;98129.66;5134388;27;20043;-72
2023/04/05 04:10:04;;;;;;;1999.90;999.90;;;;;;;-0.24;69.27;98133.13;5133931;27;20027;-72
2023/04/05 04:12:30;;;;;;;1999.90;999.90;;;;;;;-0.37;69.32;98133.22;5133906;27;20031;-72
2023/04/05 04:14:55;;;;;;;1999.90;999.90;;;;;;;-0.31;69.76;98137.72;5133450;27;20023;-73
2023/04/05 04:17:32;;;;;;;1999.90;999.90;;;;;;;-0.41;69.45;98140.13;5115012;27;20039;-73
2023/04/05 04:19:58;;;;;;;1999.90;999.90;;;;;;;-0.55;69.92;98135.88;5133664;27;20027;-72
2023/04/05 04:22:31;;;;;;;1999.90;999.90;;;;;;;-0.57;70.09;98133.44;5133677;27;20043;-72
2023/04/05 04:25:03;;;;;;;1999.90;999.90;;;;;;;-0.55;69.74;98135.88;5133727;27;20102;-73
2023/04/05 04:27:34;;;;;;;1999.90;999.90;;;;;;;-0.57;69.92;98132.63;5134671;27;20016;-69
2023/04/05 04:30:00;;;;;;;1999.90;999.90;;;;;;;-0.62;70.47;98135.13;5117707;27;20034;-73
2023/04/05 04:32:46;;;;;;;1999.90;999.90;;;;;;;-0.65;70.55;98135.56;5133369;27;20039;-73
2023/04/05 04:35:19;;;;;;;;;;;;;;;-0.64;70.09;98140.72;5134080;27;20023;-73
2023/04/05 04:37:52;;;;;;;1999.90;999.90;;;;;;;-0.53;70.14;98133.78;5134227;27;19911;-73
2023/04/05 04:40:17;;;;;;;1999.90;999.90;;;;;;;-0.62;70.31;98135.13;5133304;27;20068;-72
2023/04/05 04:42:47;;;;;;;1999.90;999.90;;;;;;;-0.62;71.21;98145.84;5114538;27;20475;-73
2023/04/05 04:45:16;;;;;;;1999.90;999.90;;;;;;;-0.51;70.30;98139.78;5133077;27;20031;-72
2023/04/05 04:47:42;;;;;;;1999.90;999.90;;;;;;;-0.43;69.65;98149.41;5115519;27;20027;-72
2023/04/05 04:50:09;;;;;;;1999.90;999.90;;;;;;;-0.43;69.42;98144.88;5135012;27;20023;-72
2023/04/05 04:52:35;;;;;;;1999.90;999.90;;;;;;;-0.33;70.24;98150.56;5133173;27;20027;-72
2023/04/05 04:55:03;;;;;;;1999.90;999.90;;;;;;;-0.28;68.68;98153.41;5113483;28;20491;-72
2023/04/05 04:57:29;;;;;;;1999.90;999.90;;;;;;;-0.27;68.67;98147.00;5119895;27;20031;-72
2023/04/05 04:59:54;;;;;;;1999.90;999.90;;;;;;;-0.34;68.91;98154.28;5133578;27;20027;-72
2023/04/05 05:02:23;;;;;;;1999.90;999.90;;;;;;;-0.25;68.90;98155.66;5133071;27;20103;-71
2023/04/05 05:04:49;;;;;;;1999.90;999.90;;;;;;;-0.22;68.80;98152.50;5132976;27;20030;-72
2023/04/05 05:07:16;;;;;;;1999.90;999.90;;;;;;;-0.17;67.74;98152.69;5133205;27;20111;-72
2023/04/05 05:09:42;;;;;;;1999.90;999.90;;;;;;;-0.15;67.31;98158.66;5133184;27;20068;-72
2023/04/05 05:12:07;;;;;;;1999.90;999.90;;;;;;;-0.11;67.58;98159.03;5112796;27;20035;-72
2023/04/05 05:14:32;;;;;;;1999.90;999.90;;;;;;;0.12;66.47;98158.38;5131348;27;20114;-72
2023/04/05 05:16:58;;;;;;;1999.90;999.90;;;;;;;0.03;66.02;98167.78;5138913;27;20046;-71
2023/04/05 05:19:23;;;;;;;1999.90;999.90;;;;;;;0.03;66.20;98174.00;5127954;27;20022;-72
2023/04/05 05:21:49;;;;;;;1999.90;999.90;;;;;;;0.06;66.04;98172.72;5130634;27;20015;-72
2023/04/05 05:24:15;;;;;;;1999.90;999.90;;;;;;;0.17;65.67;98177.34;5130408;27;20039;-71
2023/04/05 05:26:40;;;;;;;1999.90;999.90;;;;;;;0.07;65.56;98175.16;5111331;27;20070;-72
2023/04/05 05:29:06;;;;;;;1999.90;999.90;;;;;;;0.11;65.96;98179.06;5127920;27;20047;-72
2023/04/05 05:31:32;;;;;;;1999.90;999.90;;;;;;;0.03;65.14;98175.84;5130802;27;20031;-73
2023/04/05 05:34:01;;;;;;;1999.90;999.90;;;;;;;-0.17;65.50;98160.75;5112765;27;20485;-72
2023/04/05 05:36:26;;;;;;;1999.90;999.90;;;;;;;0.06;64.93;98181.63;5121137;27;20468;-71
2023/04/05 05:38:53;;;;;;;1999.90;999.90;;;;;;;0.05;64.78;98184.50;5127512;27;20038;-73
2023/04/05 05:41:18;;;;;;;1999.90;999.90;;;;;;;-0.06;65.30;98178.81;5130550;27;20503;-72
2023/04/05 05:43:44;;;;;;;1999.90;999.90;;;;;;;0.05;64.54;98181.81;5131096;27;20031;-72
2023/04/05 05:46:09;;;;;;;1999.90;999.90;;;;;;;0.22;64.29;98182.91;5130519;27;20106;-73
2023/04/05 05:48:35;;;;;;;1999.90;999.90;;;;;;;0.29;63.51;98183.63;5138122;27;20026;-73
2023/04/05 05:51:01;;;;;;;1999.90;999.90;;;;;;;0.56;63.43;98189.53;5151841;27;20386;-73
2023/04/05 05:53:26;;;;;;;1999.90;999.90;;;;;;;0.86;61.54;98193.88;5151578;27;20033;-72
2023/04/05 05:55:52;;;;;;;1999.90;999.90;;;;;;;1.01;61.02;98190.78;5151724;27;20050;-72
2023/04/05 05:58:17;;;;;;;1999.90;999.90;;;;;;;0.79;61.64;98192.31;5151777;27;20091;-73
2023/04/05 06:00:43;;;;;;;1999.90;999.90;;;;;;;0.53;61.72;98199.66;5151898;27;20440;-73
2023/04/05 06:03:09;;;;;;;1999.90;999.90;;;;;;;0.83;60.74;98204.28;5151995;27;20026;-73
2023/04/05 06:05:35;;;;;;;1999.90;999.90;;;;;;;1.11;59.93;98198.31;5151457;27;20067;-72
2023/04/05 06:08:02;;;;;;;1999.90;999.90;;;;;;;1.42;59.05;98200.75;5151592;27;20046;-72
2023/04/05 06:10:28;;;;;;;1999.90;999.90;;;;;;;1.72;58.01;98201.53;5151715;27;20061;-73
2023/04/05 06:12:53;;;;;;;1999.90;999.90;;;;;;;1.43;58.20;98208.59;5132452;27;20042;-73
2023/04/05 06:15:19;;;;;;;1999.90;999.90;;;;;;;1.13;58.77;98204.31;5149125;27;20058;-74
2023/04/05 06:17:45;;;;;;;1999.90;999.90;;;;;;;1.14;58.96;98203.25;5153547;27;20468;-72
2023/04/05 06:20:11;;;;;;;1999.90;999.90;;;;;;;1.29;58.44;98198.25;5151272;27;20024;-73
2023/04/05 06:22:40;;;;;;;1999.90;999.90;;;;;;;1.36;57.66;98204.34;5151547;27;20023;-73
2023/04/05 06:25:07;;;;;;;1999.90;999.90;;;;;;;1.84;56.93;98202.34;5151192;27;20022;-75
2023/04/05 06:27:32;;;;;;;1999.90;999.90;;;;;;;1.67;57.07;98201.38;5151443;27;20022;-73
2023/04/05 06:29:59;;;;;;;1999.90;999.90;;;;;;;1.32;57.38;98205.88;5151390;27;20417;-73
2023/04/05 06:32:24;;;;;;;1999.90;999.90;;;;;;;1.56;57.21;98199.50;5148697;27;20467;-72
2023/04/05 06:34:50;;;;;;;1999.90;999.90;;;;;;;1.82;56.55;98195.53;5151242;27;20056;-73
2023/04/05 06:37:15;;;;;;;1999.90;999.90;;;;;;;2.30;55.97;98208.78;5151319;27;20087;-73
2023/04/05 06:39:40;;;;;;;1999.90;999.90;;;;;;;2.52;54.68;98199.00;5151279;27;20479;-73
2023/04/05 06:42:06;;;;;;;1999.90;999.90;;;;;;;2.32;54.89;98194.00;5149905;27;20011;-72
2023/04/05 06:44:31;;;;;;;1999.90;999.90;;;;;;;2.34;54.48;98201.88;5151659;27;20828;-72
2023/04/05 06:46:57;;;;;;;1999.90;999.90;;;;;;;2.34;54.17;98201.88;5151764;27;20027;-73
2023/04/05 06:49:22;;;;;;;1999.90;999.90;;;;;;;2.52;53.71;98201.72;5151005;27;20114;-73
2023/04/05 06:51:48;;;;;;;1999.90;999.90;;;;;;;2.65;53.64;98202.28;5151673;27;20113;-73
2023/04/05 06:54:14;;;;;;;1999.90;999.90;;;;;;;2.77;53.27;98202.25;5151305;27;20061;-72
2023/04/05 06:56:39;;;;;;;1999.90;999.90;;;;;;;2.79;54.02;98192.00;5151608;27;20078;-73
2023/04/05 06:59:05;;;;;;;1999.90;999.90;;;;;;;2.97;52.54;98202.66;5151900;27;20470;-73
2023/04/05 07:01:30;;;;;;;1999.90;999.90;;;;;;;2.78;52.68;98198.50;5148744;27;20102;-71
2023/04/05 07:03:55;;;;;;;1999.90;999.90;;;;;;;2.89;52.42;98202.19;5151942;27;20479;-72
2023/04/05 07:06:22;;;;;;;1999.90;999.90;;;;;;;3.16;51.96;98193.25;5152140;27;20023;-72
2023/04/05 07:08:48;;;;;;;1999.90;999.90;;;;;;;3.47;51.65;98201.94;5152922;27;20099;-72
2023/04/05 07:11:14;;;;;;;1999.90;999.90;;;;;;;3.59;50.42;98194.59;5151883;27;20042;-72
2023/04/05 07:13:40;;;;;;;1999.90;999.90;;;;;;;3.32;50.58;98197.06;5151866;27;20076;-73
2023/04/05 07:16:05;;;;;;;1999.90;999.90;;;;;;;3.39;50.48;98199.63;5151974;27;20029;-73
2023/04/05 07:18:31;;;;;;;1999.90;999.90;;;;;;;3.48;50.43;98198.16;5152007;27;20477;-72
2023/04/05 07:21:02;;;;;;;1999.90;999.90;;;;;;;3.75;50.40;98207.31;5151897;27;20034;-73
2023/04/05 07:23:28;;;;;;;1999.90;999.90;;;;;;;3.81;49.55;98200.91;5151906;27;20031;-72
2023/04/05 07:25:54;;;;;;;1999.90;999.90;;;;;;;4.18;48.46;98199.31;5151870;27;20490;-73
2023/04/05 07:28:20;;;;;;;1999.90;999.90;;;;;;;5.28;47.62;98209.94;5151804;27;20091;-72
2023/04/05 07:30:45;;;;;;;1999.90;999.90;;;;;;;4.84;45.95;98205.63;5152038;27;20033;-73
2023/04/05 07:33:11;;;;;;;1999.90;999.90;;;;;;;4.65;47.00;98210.53;5152049;27;20122;-72
2023/04/05 07:35:37;;;;;;;1999.90;999.90;;;;;;;4.60;46.65;98209.66;5151807;27;20027;-73
2023/04/05 07:38:02;;;;;;;1999.90;999.90;;;;;;;4.59;46.38;98210.72;5152269;27;20023;-72
2023/04/05 07:40:27;;;;;;;1999.90;999.90;;;;;;;5.00;45.69;98201.22;5154386;27;20046;-76
2023/04/05 07:42:53;;;;;;;1999.90;999.90;;;;;;;5.16;45.07;98209.28;5153832;27;20023;-74
2023/04/05 07:45:18;;;;;;;1999.90;999.90;;;;;;;5.72;43.77;98198.97;5152555;27;20363;-73
2023/04/05 07:47:44;;;;;;;1999.90;999.90;;;;;;;6.02;43.24;98207.38;5151674;27;20076;-72
2023/04/05 07:50:13;;;;;;;1999.90;999.90;;;;;;;7.31;40.68;98202.09;5154236;27;20080;-72
2023/04/05 07:52:39;;;;;;;1999.90;999.90;;;;;;;8.51;37.84;98199.72;5155251;27;20103;-73
2023/04/05 07:55:06;;;;;;;1999.90;999.90;;;;;;;9.55;36.04;98205.00;5155402;27;20050;-72
2023/04/05 07:57:31;;;;;;;1999.90;999.90;;;;;;;9.42;35.75;98199.34;5155549;27;20092;-72
2023/04/05 07:59:56;;;;;;;1999.90;999.90;;;;;;;9.87;35.29;98218.16;5155622;27;20039;-72
2023/04/05 08:02:22;;;;;;;1999.90;999.90;;;;;;;9.63;35.59;98211.78;5155728;27;20114;-72
2023/04/05 08:04:47;;;;;;;1999.90;999.90;;;;;;;10.01;34.35;98215.63;5155107;27;20479;-73
2023/04/05 08:07:13;;;;;;;1999.90;999.90;;;;;;;9.18;36.17;98206.59;5155086;27;20031;-72
2023/04/05 08:09:38;;;;;;;1999.90;999.90;;;;;;;10.62;34.07;98199.50;5155129;27;20034;-73
2023/04/05 08:12:04;;;;;;;1999.90;999.90;;;;;;;12.31;31.40;98206.78;5154895;27;20048;-73
2023/04/05 08:14:29;;;;;;;1999.90;999.90;;;;;;;12.94;30.21;98209.75;5155086;27;20066;-72
2023/04/05 08:16:54;;;;;;;1999.90;999.90;;;;;;;12.93;30.02;98216.38;5146455;27;20043;-73
2023/04/05 08:19:20;;;;;;;1999.90;999.90;;;;;;;14.75;27.33;98215.00;5134383;27;20049;-73
2023/04/05 08:21:45;;;;;;;1999.90;999.90;;;;;;;14.85;27.42;98218.28;5134715;27;20349;-73
2023/04/05 08:24:11;;;;;;;1999.90;999.90;;;;;;;14.73;27.26;98209.81;5134566;27;20069;-73
2023/04/05 08:26:36;;;;;;;1999.90;999.90;;;;;;;14.87;26.91;98213.28;5135226;27;20029;-73
2023/04/05 08:29:01;;;;;;;1999.90;999.90;;;;;;;15.32;26.72;98207.59;5134961;27;20030;-72
2023/04/05 08:31:27;;;;;;;1999.90;999.90;;;;;;;15.44;26.05;98211.38;5134534;27;20030;-72
2023/04/05 08:33:52;;;;;;;1999.90;999.90;;;;;;;14.69;26.65;98211.56;5133896;27;20357;-73
2023/04/05 08:36:18;;;;;;;1999.90;999.90;;;;;;;14.04;27.18;98204.94;5134026;27;20034;-72
2023/04/05 08:38:43;;;;;;;1999.90;999.90;;;;;;;13.09;27.98;98194.97;5133936;27;20058;-72
2023/04/05 08:41:22;;;;;;;1999.90;999.90;;;;;;;12.82;29.39;98202.03;5133714;27;20020;-73
2023/04/05 08:43:55;;;;;;;1999.90;999.90;;;;;;;15.32;26.17;98196.59;5133952;27;20027;-76
2023/04/05 08:46:21;;;;;;;1999.90;999.90;;;;;;;15.84;25.39;98192.03;5133734;27;20395;-72
2023/04/05 08:48:47;;;;;;;1999.90;999.90;;;;;;;15.24;25.67;98205.66;5133823;27;20031;-72
2023/04/05 08:51:12;;;;;;;1999.90;999.90;;;;;;;14.34;26.39;98188.53;5133686;27;20047;-72
2023/04/05 08:53:38;;;;;;;1999.90;999.90;;;;;;;15.14;26.04;98189.41;5133624;27;20038;-73
2023/04/05 08:56:04;;;;;;;1999.90;999.90;;;;;;;15.37;25.88;98188.19;5133612;27;20019;-73
2023/04/05 08:58:30;;;;;;;1999.90;999.90;;;;;;;17.16;24.32;98191.16;5133760;27;20031;-73
2023/04/05 09:00:57;;;;;;;1999.90;999.90;;;;;;;17.25;23.61;98187.19;5113838;27;20510;-73
2023/04/05 09:03:28;;;;;;;1999.90;999.90;;;;;;;17.26;23.67;98183.28;5115537;27;20079;-73
2023/04/05 09:05:57;;;;;;;1999.90;999.90;;;;;;;17.74;23.19;98185.63;5133787;27;20084;-73
2023/04/05 09:08:23;;;;;;;1999.90;999.90;;;;;;;15.98;25.06;98179.69;5133743;27;20043;-73
2023/04/05 09:10:53;;;;;;;1999.90;999.90;;;;;;;15.32;25.48;98180.03;5134452;27;20356;-72
2023/04/05 09:13:18;;;;;;;1999.90;999.90;;;;;;;16.28;24.66;98168.78;5135503;27;20392;-72
2023/04/05 09:15:45;;;;;;;1999.90;999.90;;;;;;;15.95;24.52;98174.81;5133109;27;20019;-73
2023/04/05 09:18:10;;;;;;;1999.90;999.90;;;;;;;16.41;24.21;98163.06;5133087;27;20075;-73
2023/04/05 09:20:36;;;;;;;1999.90;999.90;;;;;;;15.59;24.46;98167.97;5132903;27;20062;-73
2023/04/05 09:23:01;;;;;;;1999.90;999.90;;;;;;;15.67;24.68;98161.66;5114743;27;20031;-73
2023/04/05 09:25:37;;;;;;;1999.90;999.90;;;;;;;13.86;25.93;98166.31;5114647;27;20034;-72
2023/04/05 09:28:02;;;;;;;1999.90;999.90;;;;;;;14.09;25.80;98156.13;5133000;27;20092;-73
2023/04/05 09:30:27;;;;;;;1999.90;999.90;;;;;;;14.40;25.52;98150.69;5133029;27;20027;-73
2023/04/05 09:32:55;;;;;;;1999.90;999.90;;;;;;;14.12;26.28;98146.44;5133868;27;20437;-73
2023/04/05 09:35:28;;;;;;;1999.90;999.90;;;;;;;15.90;24.65;98150.16;5133932;27;20027;-73
2023/04/05 09:37:58;;;;;;;1999.90;999.90;;;;;;;14.40;25.29;98147.94;5133625;27;20027;-75
2023/04/05 09:40:38;;;;;;;1999.90;999.90;;;;;;;13.46;26.23;98145.25;5132876;27;20027;-73
2023/04/05 09:43:04;;;;;;;1999.90;999.90;;;;;;;13.04;26.79;98140.09;5132574;27;20094;-73
2023/04/05 09:45:37;;;;;;;1999.90;999.90;;;;;;;12.95;27.26;98142.75;5132514;27;20122;-72
2023/04/05 09:48:02;;;;;;;1999.90;999.90;;;;;;;14.67;25.51;98136.72;5133183;27;20031;-73
2023/04/05 09:50:28;;;;;;;1999.90;999.90;;;;;;;15.61;24.36;98138.94;5135974;27;20027;-75
2023/04/05 09:53:14;;;;;;;1999.90;999.90;;;;;;;15.07;24.55;98140.25;5137371;27;20135;-73
2023/04/05 09:55:42;;;;;;;1999.90;999.90;;;;;;;14.47;25.57;98120.78;5132277;27;20117;-74
2023/04/05 09:58:12;;;;;;;1999.90;999.90;;;;;;;12.50;27.31;98117.00;5132383;27;20034;-73
2023/04/05 10:00:38;;;;;;;1999.90;999.90;;;;;;;12.74;27.06;98133.31;5132414;27;20046;-73
2023/04/05 10:03:03;;;;;;;1999.90;999.90;;;;;;;13.73;26.53;98116.84;5132799;27;20027;-72
2023/04/05 10:05:29;;;;;;;1999.90;999.90;;;;;;;14.68;25.38;98108.06;5113783;27;20080;-73
2023/04/05 10:07:55;;;;;;;1999.90;999.90;;;;;;;13.85;25.70;98115.16;5132029;27;20054;-73
2023/04/05 10:10:22;;;;;;;1999.90;999.90;;;;;;;14.82;25.43;98114.25;5132116;27;20114;-73
2023/04/05 10:12:48;;;;;;;1999.90;999.90;;;;;;;13.46;26.24;98106.78;5131489;27;20027;-73
2023/04/05 10:15:15;;;;;;;1999.90;999.90;;;;;;;11.94;27.77;98108.16;5132143;27;20060;-73
2023/04/05 10:17:52;;;;;;;1999.90;999.90;;;;;;;12.96;27.56;98094.13;5132140;27;20031;-73
2023/04/05 10:20:19;;;;;;;1999.90;999.90;;;;;;;13.30;27.01;98102.75;5133547;27;20031;-73
2023/04/05 10:22:50;;;;;;;1999.90;999.90;;;;;;;15.21;24.78;98096.88;5131748;27;20023;-73
2023/04/05 10:25:31;;;;;;;1999.90;999.90;;;;;;;12.67;27.58;98092.53;5132007;27;20023;-73
2023/04/05 10:28:05;;;;;;;1999.90;999.90;;;;;;;13.90;26.20;98092.25;5113420;27;20126;-73
2023/04/05 10:30:43;;;;;;;1999.90;999.90;;;;;;;13.85;26.59;98084.91;5131921;27;20395;-73
2023/04/05 10:33:20;;;;;;;1999.90;999.90;;;;;;;14.99;25.32;98086.78;5131993;27;20391;-74
2023/04/05 10:36:04;;;;;;;1999.90;999.90;;;;;;;15.02;24.68;98088.91;5131675;27;20051;-74
2023/04/05 10:38:39;;;;;;;1999.90;999.90;;;;;;;12.97;26.57;98080.09;5132766;27;20027;-77
2023/04/05 10:41:09;;;;;;;1999.90;999.90;;;;;;;13.60;26.22;98080.03;5133250;27;20023;-73
2023/04/05 10:43:38;;;;;;;1999.90;999.90;;;;;;;13.64;25.89;98080.25;5131676;27;20424;-73
2023/04/05 10:46:05;;;;;;;1999.90;999.90;;;;;;;13.77;25.97;98077.44;5131566;27;20019;-73
2023/04/05 10:48:53;;;;;;;1999.90;999.90;;;;;;;14.88;25.07;98070.84;5131466;27;20080;-72
2023/04/05 10:51:19;;;;;;;1999.90;999.90;;;;;;;14.12;25.84;98066.66;5131306;27;20019;-72
2023/04/05 10:53:45;;;;;;;1999.90;999.90;;;;;;;13.72;26.11;98066.53;5131201;27;20038;-72
2023/04/05 10:56:12;;;;;;;1999.90;999.90;;;;;;;13.67;26.13;98058.44;5131372;27;20361;-72
2023/04/05 10:58:41;;;;;;;1999.90;999.90;;;;;;;12.73;27.00;98052.06;5131547;27;20031;-72
2023/04/05 11:01:08;;;;;;;1999.90;999.90;;;;;;;12.26;28.06;98053.28;5131321;27;20487;-74
2023/04/05 11:03:53;;;;;;;1999.90;999.90;;;;;;;11.66;28.96;98039.56;5131642;27;20031;-72